sensor_id;sensor_type;location;lat;lon;timestamp;temperature;humidity
6756;DHT22;3415;51.148;7.014;2023-11-19T00:01:01;10.10;99.90
6756;DHT22;3415;51.148;7.014;2023-11-19T00:03:32;10.20;99.90
6756;DHT22;3415;51.148;7.014;2023-11-19T00:06:00;10.10;99.90
6756;DHT22;3415;51.148;7.014;2023-11-19T00:08:28;10.20;99.90
6756;DHT22;3415;51.148;7.014;2023-11-19T00:10:55;10.20;99.90
6756;DHT22;3415;51.148;7.014;2023-11-19T00:13:21;10.20;99.90
6756;DHT22;3415;51.148;7.014;2023-11-19T00:15:49;10.30;99.90
6756;DHT22;3415;51.148;7.014;2023-11-19T00:20:44;10.30;99.90
6756;DHT22;3415;51.148;7.014;2023-11-19T00:23:11;10.30;99.90
6756;DHT22;3415;51.148;7.014;2023-11-19T00:25:38;10.30;99.90
6756;DHT22;3415;51.148;7.014;2023-11-19T00:28:05;10.30;99.90
6756;DHT22;3415;51.148;7.014;2023-11-19T00:30:32;10.50;99.90
6756;DHT22;3415;51.148;7.014;2023-11-19T00:32:58;10.40;99.90
6756;DHT22;3415;51.148;7.014;2023-11-19T00:35:25;10.40;99.90
6756;DHT22;3415;51.148;7.014;2023-11-19T00:37:53;10.50;99.90
6756;DHT22;3415;51.148;7.014;2023-11-19T00:40:21;10.40;99.90
6756;DHT22;3415;51.148;7.014;2023-11-19T00:42:48;10.40;99.90
6756;DHT22;3415;51.148;7.014;2023-11-19T00:45:15;10.50;99.90
6756;DHT22;3415;51.148;7.014;2023-11-19T00:47:42;10.50;99.90
6756;DHT22;3415;51.148;7.014;2023-11-19T00:50:09;10.50;99.90
6756;DHT22;3415;51.148;7.014;2023-11-19T00:52:36;10.50;99.90
6756;DHT22;3415;51.148;7.014;2023-11-19T00:55:06;10.50;99.90
6756;DHT22;3415;51.148;7.014;2023-11-19T00:57:33;10.50;99.90
6756;DHT22;3415;51.148;7.014;2023-11-19T00:59:59;10.50;99.90
6756;DHT22;3415;51.148;7.014;2023-11-19T01:02:26;10.50;99.90
6756;DHT22;3415;51.148;7.014;2023-11-19T01:04:53;10.50;99.90
6756;DHT22;3415;51.148;7.014;2023-11-19T01:07:21;10.50;99.90
6756;DHT22;3415;51.148;7.014;2023-11-19T01:09:49;10.50;99.90
6756;DHT22;3415;51.148;7.014;2023-11-19T01:12:18;10.50;99.90
6756;DHT22;3415;51.148;7.014;2023-11-19T01:14:45;10.70;99.90
6756;DHT22;3415;51.148;7.014;2023-11-19T01:17:12;10.50;99.90
6756;DHT22;3415;51.148;7.014;2023-11-19T01:19:38;10.60;99.90
6756;DHT22;3415;51.148;7.014;2023-11-19T01:22:05;10.80;99.90
6756;DHT22;3415;51.148;7.014;2023-11-19T01:24:32;10.60;99.90
6756;DHT22;3415;51.148;7.014;2023-11-19T01:26:59;10.60;99.90
6756;DHT22;3415;51.148;7.014;2023-11-19T01:29:27;10.60;99.90
6756;DHT22;3415;51.148;7.014;2023-11-19T01:31:54;10.70;99.90
6756;DHT22;3415;51.148;7.014;2023-11-19T01:34:21;10.70;99.90
6756;DHT22;3415;51.148;7.014;2023-11-19T01:36:48;10.70;99.90
6756;DHT22;3415;51.148;7.014;2023-11-19T01:39:15;10.90;99.90
6756;DHT22;3415;51.148;7.014;2023-11-19T01:41:42;10.90;99.90
6756;DHT22;3415;51.148;7.014;2023-11-19T01:44:09;11.00;99.90
6756;DHT22;3415;51.148;7.014;2023-11-19T01:46:40;11.00;99.90
6756;DHT22;3415;51.148;7.014;2023-11-19T01:49:07;11.00;99.90
6756;DHT22;3415;51.148;7.014;2023-11-19T01:51:35;11.10;99.90
6756;DHT22;3415;51.148;7.014;2023-11-19T01:54:02;11.20;99.90
6756;DHT22;3415;51.148;7.014;2023-11-19T01:56:30;11.30;99.90
6756;DHT22;3415;51.148;7.014;2023-11-19T01:58:58;11.30;99.90
6756;DHT22;3415;51.148;7.014;2023-11-19T02:01:26;11.20;99.90
6756;DHT22;3415;51.148;7.014;2023-11-19T02:03:56;11.30;99.90
6756;DHT22;3415;51.148;7.014;2023-11-19T02:06:24;11.30;99.90
6756;DHT22;3415;51.148;7.014;2023-11-19T02:08:52;11.40;99.90
6756;DHT22;3415;51.148;7.014;2023-11-19T02:11:19;11.40;99.90
6756;DHT22;3415;51.148;7.014;2023-11-19T02:13:46;11.40;99.90
6756;DHT22;3415;51.148;7.014;2023-11-19T02:16:12;11.40;99.90
6756;DHT22;3415;51.148;7.014;2023-11-19T02:18:39;11.40;99.90
6756;DHT22;3415;51.148;7.014;2023-11-19T02:21:07;11.60;99.90
6756;DHT22;3415;51.148;7.014;2023-11-19T02:23:36;11.60;99.90
6756;DHT22;3415;51.148;7.014;2023-11-19T02:26:09;11.70;99.90
6756;DHT22;3415;51.148;7.014;2023-11-19T02:28:38;11.70;99.90
6756;DHT22;3415;51.148;7.014;2023-11-19T02:31:05;11.80;99.90
6756;DHT22;3415;51.148;7.014;2023-11-19T02:33:35;11.70;99.90
6756;DHT22;3415;51.148;7.014;2023-11-19T02:36:02;11.70;99.90
6756;DHT22;3415;51.148;7.014;2023-11-19T02:38:29;11.80;99.90
6756;DHT22;3415;51.148;7.014;2023-11-19T02:40:56;11.80;99.90
6756;DHT22;3415;51.148;7.014;2023-11-19T02:43:23;11.80;99.90
6756;DHT22;3415;51.148;7.014;2023-11-19T02:45:51;11.90;99.90
6756;DHT22;3415;51.148;7.014;2023-11-19T02:48:21;11.90;99.90
6756;DHT22;3415;51.148;7.014;2023-11-19T02:50:48;12.00;99.90
6756;DHT22;3415;51.148;7.014;2023-11-19T02:53:15;12.00;99.90
6756;DHT22;3415;51.148;7.014;2023-11-19T02:55:43;12.00;99.90
6756;DHT22;3415;51.148;7.014;2023-11-19T02:58:14;11.90;99.90
6756;DHT22;3415;51.148;7.014;2023-11-19T03:00:50;12.00;99.90
6756;DHT22;3415;51.148;7.014;2023-11-19T03:03:23;12.10;99.90
6756;DHT22;3415;51.148;7.014;2023-11-19T03:10:50;12.00;99.90
6756;DHT22;3415;51.148;7.014;2023-11-19T03:13:17;12.00;99.90
6756;DHT22;3415;51.148;7.014;2023-11-19T03:15:44;12.10;99.90
6756;DHT22;3415;51.148;7.014;2023-11-19T03:18:12;12.10;99.90
6756;DHT22;3415;51.148;7.014;2023-11-19T03:20:39;11.90;99.90
6756;DHT22;3415;51.148;7.014;2023-11-19T03:23:06;12.20;99.90
6756;DHT22;3415;51.148;7.014;2023-11-19T03:25:33;12.20;99.90
6756;DHT22;3415;51.148;7.014;2023-11-19T03:28:02;12.10;99.90
6756;DHT22;3415;51.148;7.014;2023-11-19T03:30:30;12.30;99.90
6756;DHT22;3415;51.148;7.014;2023-11-19T03:32:57;12.20;99.90
6756;DHT22;3415;51.148;7.014;2023-11-19T03:35:26;12.20;99.90
6756;DHT22;3415;51.148;7.014;2023-11-19T03:37:53;12.30;99.90
6756;DHT22;3415;51.148;7.014;2023-11-19T03:40:20;12.20;99.90
6756;DHT22;3415;51.148;7.014;2023-11-19T03:42:47;12.20;99.90
6756;DHT22;3415;51.148;7.014;2023-11-19T03:45:14;12.20;99.90
6756;DHT22;3415;51.148;7.014;2023-11-19T03:47:41;12.20;99.90
6756;DHT22;3415;51.148;7.014;2023-11-19T03:50:08;12.20;99.90
6756;DHT22;3415;51.148;7.014;2023-11-19T03:52:36;12.20;99.90
6756;DHT22;3415;51.148;7.014;2023-11-19T03:55:04;12.10;99.90
6756;DHT22;3415;51.148;7.014;2023-11-19T03:57:31;12.10;99.90
6756;DHT22;3415;51.148;7.014;2023-11-19T03:59:58;12.10;99.90
6756;DHT22;3415;51.148;7.014;2023-11-19T04:02:25;12.20;99.90
6756;DHT22;3415;51.148;7.014;2023-11-19T04:04:54;12.20;99.90
6756;DHT22;3415;51.148;7.014;2023-11-19T04:07:21;12.20;99.90
6756;DHT22;3415;51.148;7.014;2023-11-19T04:09:49;12.20;99.90
6756;DHT22;3415;51.148;7.014;2023-11-19T04:12:16;12.10;78.00
6756;DHT22;3415;51.148;7.014;2023-11-19T04:14:43;12.20;79.50
6756;DHT22;3415;51.148;7.014;2023-11-19T04:17:10;12.10;54.70
6756;DHT22;3415;51.148;7.014;2023-11-19T04:19:37;12.10;48.10
6756;DHT22;3415;51.148;7.014;2023-11-19T04:22:07;11.90;50.80
6756;DHT22;3415;51.148;7.014;2023-11-19T04:24:34;12.10;52.80
6756;DHT22;3415;51.148;7.014;2023-11-19T04:27:03;11.90;44.40
6756;DHT22;3415;51.148;7.014;2023-11-19T04:29:32;11.90;26.10
6756;DHT22;3415;51.148;7.014;2023-11-19T04:31:59;11.90;26.30
6756;DHT22;3415;51.148;7.014;2023-11-19T04:34:26;11.80;26.00
6756;DHT22;3415;51.148;7.014;2023-11-19T04:36:53;11.90;37.70
6756;DHT22;3415;51.148;7.014;2023-11-19T04:39:20;11.90;26.00
6756;DHT22;3415;51.148;7.014;2023-11-19T04:41:48;11.90;26.00
6756;DHT22;3415;51.148;7.014;2023-11-19T04:44:17;11.90;26.00
6756;DHT22;3415;51.148;7.014;2023-11-19T04:46:44;11.90;26.10
6756;DHT22;3415;51.148;7.014;2023-11-19T04:49:11;11.90;26.20
6756;DHT22;3415;51.148;7.014;2023-11-19T04:51:39;11.90;27.30
6756;DHT22;3415;51.148;7.014;2023-11-19T04:54:07;11.90;28.40
6756;DHT22;3415;51.148;7.014;2023-11-19T04:56:34;12.00;26.10
6756;DHT22;3415;51.148;7.014;2023-11-19T04:59:02;12.10;26.10
6756;DHT22;3415;51.148;7.014;2023-11-19T05:01:30;12.00;1.00
6756;DHT22;3415;51.148;7.014;2023-11-19T05:03:57;12.00;1.00
6756;DHT22;3415;51.148;7.014;2023-11-19T05:06:26;12.00;1.00
6756;DHT22;3415;51.148;7.014;2023-11-19T05:08:54;12.00;1.00
6756;DHT22;3415;51.148;7.014;2023-11-19T05:11:20;12.10;1.00
6756;DHT22;3415;51.148;7.014;2023-11-19T05:13:47;12.10;1.00
6756;DHT22;3415;51.148;7.014;2023-11-19T05:16:14;12.10;1.00
6756;DHT22;3415;51.148;7.014;2023-11-19T05:18:42;12.00;1.00
6756;DHT22;3415;51.148;7.014;2023-11-19T05:21:09;12.00;1.00
6756;DHT22;3415;51.148;7.014;2023-11-19T05:23:35;12.10;1.00
6756;DHT22;3415;51.148;7.014;2023-11-19T05:26:02;12.00;1.00
6756;DHT22;3415;51.148;7.014;2023-11-19T05:28:29;12.00;1.00
6756;DHT22;3415;51.148;7.014;2023-11-19T05:30:56;12.00;1.00
6756;DHT22;3415;51.148;7.014;2023-11-19T05:35:52;12.00;1.00
6756;DHT22;3415;51.148;7.014;2023-11-19T05:38:18;12.00;1.00
6756;DHT22;3415;51.148;7.014;2023-11-19T05:40:46;11.90;1.00
6756;DHT22;3415;51.148;7.014;2023-11-19T05:43:14;11.90;1.00
6756;DHT22;3415;51.148;7.014;2023-11-19T05:45:42;11.80;1.00
6756;DHT22;3415;51.148;7.014;2023-11-19T05:48:09;11.80;1.00
6756;DHT22;3415;51.148;7.014;2023-11-19T05:50:36;11.80;1.00
6756;DHT22;3415;51.148;7.014;2023-11-19T05:53:05;11.80;1.00
6756;DHT22;3415;51.148;7.014;2023-11-19T05:55:35;11.90;1.00
6756;DHT22;3415;51.148;7.014;2023-11-19T05:58:03;12.00;1.00
6756;DHT22;3415;51.148;7.014;2023-11-19T06:00:32;11.90;1.00
6756;DHT22;3415;51.148;7.014;2023-11-19T06:03:01;11.90;99.90
6756;DHT22;3415;51.148;7.014;2023-11-19T06:05:28;11.90;99.90
6756;DHT22;3415;51.148;7.014;2023-11-19T06:07:54;11.80;99.90
6756;DHT22;3415;51.148;7.014;2023-11-19T06:10:24;11.70;99.90
6756;DHT22;3415;51.148;7.014;2023-11-19T06:12:57;11.80;99.90
6756;DHT22;3415;51.148;7.014;2023-11-19T06:15:25;11.80;99.90
6756;DHT22;3415;51.148;7.014;2023-11-19T06:17:52;11.80;99.90
6756;DHT22;3415;51.148;7.014;2023-11-19T06:20:19;11.80;99.90
6756;DHT22;3415;51.148;7.014;2023-11-19T06:22:46;11.70;99.90
6756;DHT22;3415;51.148;7.014;2023-11-19T06:25:13;11.80;99.90
6756;DHT22;3415;51.148;7.014;2023-11-19T06:27:42;11.70;99.90
6756;DHT22;3415;51.148;7.014;2023-11-19T06:30:10;11.60;99.90
6756;DHT22;3415;51.148;7.014;2023-11-19T06:32:37;11.60;99.90
6756;DHT22;3415;51.148;7.014;2023-11-19T06:35:05;11.40;99.90
6756;DHT22;3415;51.148;7.014;2023-11-19T06:37:32;11.40;99.90
6756;DHT22;3415;51.148;7.014;2023-11-19T06:39:58;11.40;99.90
6756;DHT22;3415;51.148;7.014;2023-11-19T06:42:25;11.30;99.90
6756;DHT22;3415;51.148;7.014;2023-11-19T06:44:54;11.30;99.90
6756;DHT22;3415;51.148;7.014;2023-11-19T06:47:22;11.20;99.90
6756;DHT22;3415;51.148;7.014;2023-11-19T06:52:20;11.10;99.90
6756;DHT22;3415;51.148;7.014;2023-11-19T06:54:47;11.10;99.90
6756;DHT22;3415;51.148;7.014;2023-11-19T07:02:11;11.00;99.90
6756;DHT22;3415;51.148;7.014;2023-11-19T07:04:37;11.00;99.90
6756;DHT22;3415;51.148;7.014;2023-11-19T07:09:32;10.90;99.90
6756;DHT22;3415;51.148;7.014;2023-11-19T07:11:59;10.70;99.90
6756;DHT22;3415;51.148;7.014;2023-11-19T07:14:27;10.70;99.90
6756;DHT22;3415;51.148;7.014;2023-11-19T07:16:54;10.60;99.90
6756;DHT22;3415;51.148;7.014;2023-11-19T07:19:22;10.60;99.90
6756;DHT22;3415;51.148;7.014;2023-11-19T07:24:16;10.60;99.90
6756;DHT22;3415;51.148;7.014;2023-11-19T07:26:44;11.10;99.90
6756;DHT22;3415;51.148;7.014;2023-11-19T07:29:11;10.70;99.90
6756;DHT22;3415;51.148;7.014;2023-11-19T07:31:38;10.70;99.90
6756;DHT22;3415;51.148;7.014;2023-11-19T07:36:33;10.80;99.90
6756;DHT22;3415;51.148;7.014;2023-11-19T07:39:01;10.80;99.90
6756;DHT22;3415;51.148;7.014;2023-11-19T07:53:46;10.90;99.90
6756;DHT22;3415;51.148;7.014;2023-11-19T07:56:13;11.10;99.90
6756;DHT22;3415;51.148;7.014;2023-11-19T08:01:09;11.40;99.90
6756;DHT22;3415;51.148;7.014;2023-11-19T08:03:36;12.10;95.50
6756;DHT22;3415;51.148;7.014;2023-11-19T08:06:04;11.80;45.30
6756;DHT22;3415;51.148;7.014;2023-11-19T08:08:31;12.10;44.90
6756;DHT22;3415;51.148;7.014;2023-11-19T08:11:00;12.70;1.00
6756;DHT22;3415;51.148;7.014;2023-11-19T08:13:27;13.70;1.00
6756;DHT22;3415;51.148;7.014;2023-11-19T08:15:53;13.70;1.00
6756;DHT22;3415;51.148;7.014;2023-11-19T08:20:48;13.60;1.00
6756;DHT22;3415;51.148;7.014;2023-11-19T08:23:18;13.80;1.00
6756;DHT22;3415;51.148;7.014;2023-11-19T08:25:45;13.90;1.00
6756;DHT22;3415;51.148;7.014;2023-11-19T08:28:13;13.20;1.00
6756;DHT22;3415;51.148;7.014;2023-11-19T08:30:40;12.90;1.00
6756;DHT22;3415;51.148;7.014;2023-11-19T08:33:06;12.90;1.00
6756;DHT22;3415;51.148;7.014;2023-11-19T08:35:33;12.70;1.00
6756;DHT22;3415;51.148;7.014;2023-11-19T08:38:00;12.40;1.00
6756;DHT22;3415;51.148;7.014;2023-11-19T08:40:27;12.20;1.00
6756;DHT22;3415;51.148;7.014;2023-11-19T08:42:55;12.10;1.00
6756;DHT22;3415;51.148;7.014;2023-11-19T08:45:23;12.20;1.00
6756;DHT22;3415;51.148;7.014;2023-11-19T08:47:50;12.20;1.00
6756;DHT22;3415;51.148;7.014;2023-11-19T08:50:16;12.20;1.00
6756;DHT22;3415;51.148;7.014;2023-11-19T08:52:43;12.20;1.00
6756;DHT22;3415;51.148;7.014;2023-11-19T08:55:10;12.40;1.00
6756;DHT22;3415;51.148;7.014;2023-11-19T08:57:39;12.60;1.00
6756;DHT22;3415;51.148;7.014;2023-11-19T09:00:06;12.60;1.00
6756;DHT22;3415;51.148;7.014;2023-11-19T09:02:35;13.60;1.00
6756;DHT22;3415;51.148;7.014;2023-11-19T09:05:03;14.10;1.00
6756;DHT22;3415;51.148;7.014;2023-11-19T09:07:31;13.60;1.00
6756;DHT22;3415;51.148;7.014;2023-11-19T09:09:58;13.60;1.00
6756;DHT22;3415;51.148;7.014;2023-11-19T09:12:24;13.30;1.00
6756;DHT22;3415;51.148;7.014;2023-11-19T09:14:51;12.90;1.00
6756;DHT22;3415;51.148;7.014;2023-11-19T09:17:18;12.70;1.00
6756;DHT22;3415;51.148;7.014;2023-11-19T09:19:46;12.70;1.00
6756;DHT22;3415;51.148;7.014;2023-11-19T09:22:13;12.80;1.00
6756;DHT22;3415;51.148;7.014;2023-11-19T09:24:40;13.40;1.00
6756;DHT22;3415;51.148;7.014;2023-11-19T09:27:09;14.50;1.00
6756;DHT22;3415;51.148;7.014;2023-11-19T09:29:36;15.20;1.00
6756;DHT22;3415;51.148;7.014;2023-11-19T09:32:03;14.60;1.00
6756;DHT22;3415;51.148;7.014;2023-11-19T09:34:30;14.50;1.00
6756;DHT22;3415;51.148;7.014;2023-11-19T09:36:58;14.20;1.00
6756;DHT22;3415;51.148;7.014;2023-11-19T09:39:25;14.20;1.00
6756;DHT22;3415;51.148;7.014;2023-11-19T09:41:52;14.20;1.00
6756;DHT22;3415;51.148;7.014;2023-11-19T09:44:19;13.70;1.00
6756;DHT22;3415;51.148;7.014;2023-11-19T09:46:46;13.80;1.00
6756;DHT22;3415;51.148;7.014;2023-11-19T09:49:14;14.50;1.00
6756;DHT22;3415;51.148;7.014;2023-11-19T09:51:42;14.30;1.00
6756;DHT22;3415;51.148;7.014;2023-11-19T09:54:10;13.80;1.00
6756;DHT22;3415;51.148;7.014;2023-11-19T09:56:39;13.40;1.00
6756;DHT22;3415;51.148;7.014;2023-11-19T09:59:06;13.10;1.00
6756;DHT22;3415;51.148;7.014;2023-11-19T10:01:34;12.90;1.00
6756;DHT22;3415;51.148;7.014;2023-11-19T10:04:01;13.00;1.00
6756;DHT22;3415;51.148;7.014;2023-11-19T10:06:28;12.80;1.00
6756;DHT22;3415;51.148;7.014;2023-11-19T10:08:55;12.90;1.00
6756;DHT22;3415;51.148;7.014;2023-11-19T10:11:23;12.80;1.00
6756;DHT22;3415;51.148;7.014;2023-11-19T10:13:51;12.80;1.00
6756;DHT22;3415;51.148;7.014;2023-11-19T10:16:20;12.70;1.00
6756;DHT22;3415;51.148;7.014;2023-11-19T10:18:48;13.00;1.00
6756;DHT22;3415;51.148;7.014;2023-11-19T10:21:17;13.00;1.00
6756;DHT22;3415;51.148;7.014;2023-11-19T10:23:51;13.00;1.00
6756;DHT22;3415;51.148;7.014;2023-11-19T10:26:19;13.00;1.00
6756;DHT22;3415;51.148;7.014;2023-11-19T10:28:48;13.20;1.00
6756;DHT22;3415;51.148;7.014;2023-11-19T10:31:15;13.00;1.00
6756;DHT22;3415;51.148;7.014;2023-11-19T10:33:42;13.00;1.00
6756;DHT22;3415;51.148;7.014;2023-11-19T10:36:10;12.90;1.00
6756;DHT22;3415;51.148;7.014;2023-11-19T10:38:38;12.80;1.00
6756;DHT22;3415;51.148;7.014;2023-11-19T10:41:05;12.70;1.00
6756;DHT22;3415;51.148;7.014;2023-11-19T10:43:43;12.70;1.00
6756;DHT22;3415;51.148;7.014;2023-11-19T10:46:13;13.00;1.00
6756;DHT22;3415;51.148;7.014;2023-11-19T10:48:44;13.00;1.00
6756;DHT22;3415;51.148;7.014;2023-11-19T10:51:13;12.90;1.00
6756;DHT22;3415;51.148;7.014;2023-11-19T10:53:43;12.90;1.00
6756;DHT22;3415;51.148;7.014;2023-11-19T10:56:11;12.80;1.00
6756;DHT22;3415;51.148;7.014;2023-11-19T10:58:44;13.00;1.00
6756;DHT22;3415;51.148;7.014;2023-11-19T11:01:15;13.00;1.00
6756;DHT22;3415;51.148;7.014;2023-11-19T11:03:44;13.20;1.00
6756;DHT22;3415;51.148;7.014;2023-11-19T11:06:13;13.30;1.00
6756;DHT22;3415;51.148;7.014;2023-11-19T11:08:40;13.10;1.00
6756;DHT22;3415;51.148;7.014;2023-11-19T11:11:07;13.00;1.00
6756;DHT22;3415;51.148;7.014;2023-11-19T11:13:37;12.90;1.00
6756;DHT22;3415;51.148;7.014;2023-11-19T11:16:06;12.80;1.00
6756;DHT22;3415;51.148;7.014;2023-11-19T11:18:35;12.80;1.00
6756;DHT22;3415;51.148;7.014;2023-11-19T11:21:07;12.70;1.00
6756;DHT22;3415;51.148;7.014;2023-11-19T11:24:00;12.80;1.00
6756;DHT22;3415;51.148;7.014;2023-11-19T11:26:53;12.90;1.00
6756;DHT22;3415;51.148;7.014;2023-11-19T11:29:29;12.80;1.00
6756;DHT22;3415;51.148;7.014;2023-11-19T11:32:02;12.70;1.00
6756;DHT22;3415;51.148;7.014;2023-11-19T11:34:50;12.80;1.00
6756;DHT22;3415;51.148;7.014;2023-11-19T11:37:25;13.00;1.00
6756;DHT22;3415;51.148;7.014;2023-11-19T11:39:57;13.70;1.00
6756;DHT22;3415;51.148;7.014;2023-11-19T11:42:34;14.10;1.00
6756;DHT22;3415;51.148;7.014;2023-11-19T11:45:02;14.80;1.00
6756;DHT22;3415;51.148;7.014;2023-11-19T11:50:33;16.00;1.00
6756;DHT22;3415;51.148;7.014;2023-11-19T11:53:15;15.20;1.00
6756;DHT22;3415;51.148;7.014;2023-11-19T11:55:53;14.70;1.00
6756;DHT22;3415;51.148;7.014;2023-11-19T11:58:25;14.30;1.00
6756;DHT22;3415;51.148;7.014;2023-11-19T12:00:52;14.10;1.00
6756;DHT22;3415;51.148;7.014;2023-11-19T12:03:20;14.00;1.00
6756;DHT22;3415;51.148;7.014;2023-11-19T12:05:49;14.10;1.00
6756;DHT22;3415;51.148;7.014;2023-11-19T12:08:19;13.80;1.00
6756;DHT22;3415;51.148;7.014;2023-11-19T12:10:48;13.80;1.00
6756;DHT22;3415;51.148;7.014;2023-11-19T12:13:16;13.50;1.00
6756;DHT22;3415;51.148;7.014;2023-11-19T12:16:09;13.60;1.00
6756;DHT22;3415;51.148;7.014;2023-11-19T12:18:39;13.60;1.00
6756;DHT22;3415;51.148;7.014;2023-11-19T12:21:08;13.50;1.00
6756;DHT22;3415;51.148;7.014;2023-11-19T12:23:45;13.50;1.00
6756;DHT22;3415;51.148;7.014;2023-11-19T12:26:33;13.60;1.00
6756;DHT22;3415;51.148;7.014;2023-11-19T12:29:01;13.70;1.00
6756;DHT22;3415;51.148;7.014;2023-11-19T12:31:29;13.80;1.00
6756;DHT22;3415;51.148;7.014;2023-11-19T12:33:57;13.80;1.00
6756;DHT22;3415;51.148;7.014;2023-11-19T12:36:25;13.70;1.00
6756;DHT22;3415;51.148;7.014;2023-11-19T12:38:53;13.70;1.00
6756;DHT22;3415;51.148;7.014;2023-11-19T12:41:20;13.30;1.00
6756;DHT22;3415;51.148;7.014;2023-11-19T12:43:49;13.20;1.00
6756;DHT22;3415;51.148;7.014;2023-11-19T12:46:20;13.10;1.00
6756;DHT22;3415;51.148;7.014;2023-11-19T12:48:47;13.10;1.00
6756;DHT22;3415;51.148;7.014;2023-11-19T12:51:14;12.90;1.00
6756;DHT22;3415;51.148;7.014;2023-11-19T12:53:50;12.90;1.00
6756;DHT22;3415;51.148;7.014;2023-11-19T12:56:20;12.90;1.00
6756;DHT22;3415;51.148;7.014;2023-11-19T12:58:47;12.80;1.00
6756;DHT22;3415;51.148;7.014;2023-11-19T13:01:17;12.80;1.00
6756;DHT22;3415;51.148;7.014;2023-11-19T13:03:45;12.50;1.00
6756;DHT22;3415;51.148;7.014;2023-11-19T13:06:13;12.40;1.00
6756;DHT22;3415;51.148;7.014;2023-11-19T13:08:42;12.30;1.00
6756;DHT22;3415;51.148;7.014;2023-11-19T13:11:12;12.40;1.00
6756;DHT22;3415;51.148;7.014;2023-11-19T13:13:55;12.50;1.00
6756;DHT22;3415;51.148;7.014;2023-11-19T13:16:22;12.70;1.00
6756;DHT22;3415;51.148;7.014;2023-11-19T13:18:49;12.60;1.00
6756;DHT22;3415;51.148;7.014;2023-11-19T13:21:17;12.90;1.00
6756;DHT22;3415;51.148;7.014;2023-11-19T13:23:44;13.00;1.00
6756;DHT22;3415;51.148;7.014;2023-11-19T13:26:12;13.10;1.00
6756;DHT22;3415;51.148;7.014;2023-11-19T13:28:38;13.10;1.00
6756;DHT22;3415;51.148;7.014;2023-11-19T13:31:06;13.10;1.00
6756;DHT22;3415;51.148;7.014;2023-11-19T13:33:33;13.20;1.00
6756;DHT22;3415;51.148;7.014;2023-11-19T13:36:00;13.00;1.00
6756;DHT22;3415;51.148;7.014;2023-11-19T13:38:31;13.00;1.00
6756;DHT22;3415;51.148;7.014;2023-11-19T13:40:58;12.90;1.00
6756;DHT22;3415;51.148;7.014;2023-11-19T13:43:26;12.90;1.00
6756;DHT22;3415;51.148;7.014;2023-11-19T13:45:54;12.90;1.00
6756;DHT22;3415;51.148;7.014;2023-11-19T13:48:21;12.90;1.00
6756;DHT22;3415;51.148;7.014;2023-11-19T13:50:48;13.00;1.00
6756;DHT22;3415;51.148;7.014;2023-11-19T13:53:15;12.90;1.00
6756;DHT22;3415;51.148;7.014;2023-11-19T13:55:42;12.90;1.00
6756;DHT22;3415;51.148;7.014;2023-11-19T13:58:09;12.90;1.00
6756;DHT22;3415;51.148;7.014;2023-11-19T14:00:38;12.90;1.00
6756;DHT22;3415;51.148;7.014;2023-11-19T14:03:07;12.90;1.00
6756;DHT22;3415;51.148;7.014;2023-11-19T14:05:35;12.80;1.00
6756;DHT22;3415;51.148;7.014;2023-11-19T14:08:02;12.70;1.00
6756;DHT22;3415;51.148;7.014;2023-11-19T14:10:37;12.60;1.00
6756;DHT22;3415;51.148;7.014;2023-11-19T14:13:04;12.60;1.00
6756;DHT22;3415;51.148;7.014;2023-11-19T14:15:31;12.60;1.00
6756;DHT22;3415;51.148;7.014;2023-11-19T14:17:59;12.60;1.00
6756;DHT22;3415;51.148;7.014;2023-11-19T14:20:26;12.60;1.00
6756;DHT22;3415;51.148;7.014;2023-11-19T14:22:53;12.50;1.00
6756;DHT22;3415;51.148;7.014;2023-11-19T14:25:19;12.50;1.00
6756;DHT22;3415;51.148;7.014;2023-11-19T14:27:49;12.40;1.00
6756;DHT22;3415;51.148;7.014;2023-11-19T14:32:43;12.10;1.00
6756;DHT22;3415;51.148;7.014;2023-11-19T14:35:12;12.00;1.00
6756;DHT22;3415;51.148;7.014;2023-11-19T14:37:39;11.80;1.00
6756;DHT22;3415;51.148;7.014;2023-11-19T14:40:07;11.70;1.00
6756;DHT22;3415;51.148;7.014;2023-11-19T14:42:36;11.60;1.00
6756;DHT22;3415;51.148;7.014;2023-11-19T14:45:05;11.60;1.00
6756;DHT22;3415;51.148;7.014;2023-11-19T14:47:32;11.60;1.00
6756;DHT22;3415;51.148;7.014;2023-11-19T14:49:59;11.50;1.00
6756;DHT22;3415;51.148;7.014;2023-11-19T14:52:27;11.50;1.00
6756;DHT22;3415;51.148;7.014;2023-11-19T14:54:54;11.40;1.00
6756;DHT22;3415;51.148;7.014;2023-11-19T14:57:22;11.30;1.00
6756;DHT22;3415;51.148;7.014;2023-11-19T14:59:49;11.40;3.90
6756;DHT22;3415;51.148;7.014;2023-11-19T15:02:15;11.50;44.30
6756;DHT22;3415;51.148;7.014;2023-11-19T15:04:42;11.50;1.00
6756;DHT22;3415;51.148;7.014;2023-11-19T15:07:09;11.50;1.00
6756;DHT22;3415;51.148;7.014;2023-11-19T15:09:38;11.80;1.00
6756;DHT22;3415;51.148;7.014;2023-11-19T15:12:05;11.70;1.00
6756;DHT22;3415;51.148;7.014;2023-11-19T15:14:32;11.70;1.00
6756;DHT22;3415;51.148;7.014;2023-11-19T15:16:59;11.50;1.00
6756;DHT22;3415;51.148;7.014;2023-11-19T15:19:26;11.60;1.00
6756;DHT22;3415;51.148;7.014;2023-11-19T15:21:53;11.60;1.00
6756;DHT22;3415;51.148;7.014;2023-11-19T15:24:21;11.60;1.00
6756;DHT22;3415;51.148;7.014;2023-11-19T15:26:49;11.60;1.00
6756;DHT22;3415;51.148;7.014;2023-11-19T15:29:16;11.30;1.00
6756;DHT22;3415;51.148;7.014;2023-11-19T15:31:43;11.30;1.00
6756;DHT22;3415;51.148;7.014;2023-11-19T15:34:10;11.30;1.00
6756;DHT22;3415;51.148;7.014;2023-11-19T15:36:36;11.20;1.00
6756;DHT22;3415;51.148;7.014;2023-11-19T15:41:31;11.10;1.00
6756;DHT22;3415;51.148;7.014;2023-11-19T15:43:59;11.10;1.00
6756;DHT22;3415;51.148;7.014;2023-11-19T15:46:29;11.00;1.00
6756;DHT22;3415;51.148;7.014;2023-11-19T15:48:56;11.10;1.00
6756;DHT22;3415;51.148;7.014;2023-11-19T15:51:22;11.10;1.00
6756;DHT22;3415;51.148;7.014;2023-11-19T15:53:49;11.10;1.00
6756;DHT22;3415;51.148;7.014;2023-11-19T15:56:16;11.20;1.00
6756;DHT22;3415;51.148;7.014;2023-11-19T15:58:43;11.10;1.00
6756;DHT22;3415;51.148;7.014;2023-11-19T16:01:11;11.20;1.00
6756;DHT22;3415;51.148;7.014;2023-11-19T16:03:38;11.10;1.00
6756;DHT22;3415;51.148;7.014;2023-11-19T16:06:05;11.10;1.00
6756;DHT22;3415;51.148;7.014;2023-11-19T16:08:32;11.10;1.00
6756;DHT22;3415;51.148;7.014;2023-11-19T16:10:59;11.10;1.00
6756;DHT22;3415;51.148;7.014;2023-11-19T16:13:26;11.10;1.00
6756;DHT22;3415;51.148;7.014;2023-11-19T16:15:52;11.20;1.00
6756;DHT22;3415;51.148;7.014;2023-11-19T16:18:21;11.20;1.00
6756;DHT22;3415;51.148;7.014;2023-11-19T16:20:48;11.20;1.00
6756;DHT22;3415;51.148;7.014;2023-11-19T16:23:14;11.20;1.00
6756;DHT22;3415;51.148;7.014;2023-11-19T16:25:43;11.20;1.00
6756;DHT22;3415;51.148;7.014;2023-11-19T16:28:10;11.30;1.00
6756;DHT22;3415;51.148;7.014;2023-11-19T16:30:36;11.10;1.00
6756;DHT22;3415;51.148;7.014;2023-11-19T16:33:03;11.10;1.00
6756;DHT22;3415;51.148;7.014;2023-11-19T16:35:31;11.10;1.00
6756;DHT22;3415;51.148;7.014;2023-11-19T16:38:00;11.00;1.00
6756;DHT22;3415;51.148;7.014;2023-11-19T16:40:27;11.00;1.00
6756;DHT22;3415;51.148;7.014;2023-11-19T16:42:54;11.00;1.00
6756;DHT22;3415;51.148;7.014;2023-11-19T16:45:22;11.10;1.00
6756;DHT22;3415;51.148;7.014;2023-11-19T16:47:49;11.00;1.00
6756;DHT22;3415;51.148;7.014;2023-11-19T16:50:15;11.00;1.00
6756;DHT22;3415;51.148;7.014;2023-11-19T16:52:44;11.00;1.00
6756;DHT22;3415;51.148;7.014;2023-11-19T16:57:39;11.00;1.00
6756;DHT22;3415;51.148;7.014;2023-11-19T17:00:07;11.10;1.00
6756;DHT22;3415;51.148;7.014;2023-11-19T17:02:37;11.10;1.00
6756;DHT22;3415;51.148;7.014;2023-11-19T17:05:04;11.10;1.00
6756;DHT22;3415;51.148;7.014;2023-11-19T17:07:32;11.10;1.00
6756;DHT22;3415;51.148;7.014;2023-11-19T17:10:00;11.10;1.00